createdAt,value
2022-12-01T00:00:11.786Z,97.44
2022-12-01T00:01:11.729Z,97.34
2022-12-01T00:02:11.715Z,97.24
2022-12-01T00:03:11.636Z,97.34
2022-12-01T00:04:11.464Z,97.34
2022-12-01T00:05:11.362Z,97.03
2022-12-01T00:06:11.262Z,97.24
2022-12-01T00:07:11.184Z,97.44
2022-12-01T00:08:11.117Z,97.50
2022-12-01T00:09:14.010Z,97.40
2022-12-01T00:10:10.922Z,97.55
2022-12-01T00:11:10.835Z,97.24
2022-12-01T00:12:10.753Z,96.98
2022-12-01T00:13:10.655Z,96.98
2022-12-01T00:14:10.566Z,96.98
2022-12-01T00:15:10.563Z,96.88
2022-12-01T00:16:10.449Z,96.88
2022-12-01T00:17:10.315Z,97.09
2022-12-01T00:18:10.240Z,96.98
2022-12-01T00:19:10.146Z,96.98
2022-12-01T00:20:10.053Z,96.67
2022-12-01T00:21:09.977Z,96.77
2022-12-01T00:22:09.887Z,97.40
2022-12-01T00:23:09.806Z,97.61
2022-12-01T00:24:09.718Z,97.40
2022-12-01T00:25:09.658Z,97.61
2022-12-01T00:26:09.547Z,97.71
2022-12-01T00:27:09.469Z,97.71
2022-12-01T00:28:09.399Z,97.81
2022-12-01T00:29:09.324Z,97.92
2022-12-01T00:30:09.195Z,97.92
2022-12-01T00:31:09.128Z,97.71
2022-12-01T00:32:09.089Z,97.50
2022-12-01T00:33:08.945Z,97.40
2022-12-01T00:34:11.485Z,97.19
2022-12-01T00:35:08.766Z,97.30
2022-12-01T00:36:08.660Z,97.19
2022-12-01T00:37:08.569Z,97.09
2022-12-01T00:38:08.486Z,97.19
2022-12-01T00:39:08.444Z,97.09
2022-12-01T00:40:08.304Z,97.30
2022-12-01T00:41:08.222Z,97.30
2022-12-01T00:42:13.125Z,97.13
2022-12-01T00:43:09.050Z,96.92
2022-12-01T00:44:07.984Z,96.71
2022-12-01T00:45:07.871Z,96.67
2022-12-01T00:46:07.860Z,96.88
2022-12-01T00:47:07.701Z,96.71
2022-12-01T00:48:07.613Z,96.82
2022-12-01T00:49:07.544Z,97.03
2022-12-01T00:50:07.444Z,97.13
2022-12-01T00:51:07.347Z,96.92
2022-12-01T00:52:07.262Z,96.92
2022-12-01T00:53:07.206Z,97.34
2022-12-01T00:54:07.087Z,97.34
2022-12-01T00:55:07.031Z,97.40
2022-12-01T00:56:06.933Z,97.55
2022-12-01T00:57:06.847Z,97.44
2022-12-01T00:58:06.734Z,97.24
2022-12-01T00:59:06.663Z,97.24
2022-12-01T01:00:06.626Z,97.34
2022-12-01T01:01:06.518Z,97.44
2022-12-01T01:02:06.455Z,97.44
2022-12-01T01:03:06.327Z,97.65
2022-12-01T01:04:06.241Z,97.44
2022-12-01T01:05:06.166Z,97.55
2022-12-01T01:06:06.088Z,97.65
2022-12-01T01:07:05.995Z,97.65
2022-12-01T01:08:06.041Z,97.86
2022-12-01T01:09:05.818Z,97.55
2022-12-01T01:10:05.753Z,97.55
2022-12-01T01:11:05.674Z,97.44
2022-12-01T01:12:05.569Z,97.34
2022-12-01T01:13:05.505Z,97.44
2022-12-01T01:14:05.453Z,97.65
2022-12-01T01:15:05.319Z,97.75
2022-12-01T01:16:05.251Z,97.75
2022-12-01T01:17:05.265Z,97.65
2022-12-01T01:18:05.086Z,97.44
2022-12-01T01:19:05.002Z,97.13
2022-12-01T01:20:04.906Z,97.03
2022-12-01T01:21:04.842Z,96.86
2022-12-01T01:22:04.739Z,96.76
2022-12-01T01:23:04.680Z,96.76
2022-12-01T01:24:04.588Z,96.76
2022-12-01T01:25:04.492Z,96.80
2022-12-01T01:26:04.418Z,96.86
2022-12-01T01:27:04.369Z,96.91
2022-12-01T01:28:04.249Z,97.01
2022-12-01T01:29:04.176Z,96.91
2022-12-01T01:30:04.070Z,96.95
2022-12-01T01:31:04.054Z,97.05
2022-12-01T01:32:03.911Z,97.16
2022-12-01T01:33:03.832Z,97.52
2022-12-01T01:34:03.740Z,97.89
2022-12-01T01:35:03.655Z,97.89
2022-12-01T01:36:03.581Z,97.83
2022-12-01T01:37:03.514Z,97.52
2022-12-01T01:38:03.404Z,97.62
2022-12-01T01:39:03.320Z,97.94
2022-12-01T01:40:03.220Z,97.98
2022-12-01T01:41:03.139Z,97.88
2022-12-01T01:42:03.073Z,97.98
2022-12-01T01:43:02.992Z,97.98
2022-12-01T01:44:02.935Z,98.24
2022-12-01T01:45:02.824Z,98.55
2022-12-01T01:46:02.783Z,98.65
2022-12-01T01:47:02.662Z,98.75
2022-12-01T01:48:02.601Z,98.75
2022-12-01T01:49:02.494Z,98.69
2022-12-01T01:50:02.423Z,98.80
2022-12-01T01:51:02.358Z,99.22
2022-12-01T01:52:02.273Z,99.32
2022-12-01T01:53:02.243Z,99.95
2022-12-01T01:54:02.128Z,99.99
2022-12-01T01:55:02.056Z,99.99
2022-12-01T01:56:01.975Z,99.95
2022-12-01T01:57:01.906Z,99.99
2022-12-01T01:58:01.837Z,99.99
2022-12-01T01:59:01.758Z,99.95
2022-12-01T02:00:01.679Z,99.79
2022-12-01T02:01:01.644Z,99.79
2022-12-01T02:02:01.574Z,99.90
2022-12-01T02:03:01.587Z,99.99
2022-12-01T02:04:01.396Z,99.99
2022-12-01T02:05:01.313Z,99.99
2022-12-01T02:06:04.855Z,99.99
2022-12-01T02:07:01.167Z,99.99
2022-12-01T02:08:01.214Z,99.99
2022-12-01T02:09:01.021Z,99.99
2022-12-01T02:10:00.958Z,99.99
2022-12-01T02:11:00.886Z,99.99
2022-12-01T02:12:00.820Z,99.99
2022-12-01T02:13:00.747Z,99.99
2022-12-01T02:14:00.677Z,99.99
2022-12-01T02:15:00.608Z,99.99
2022-12-01T02:16:00.538Z,99.99
2022-12-01T02:17:00.575Z,99.99
2022-12-01T02:18:00.387Z,99.99
2022-12-01T02:19:00.350Z,99.99
2022-12-01T02:20:00.254Z,99.99
2022-12-01T02:21:00.198Z,99.99
2022-12-01T02:22:00.138Z,99.99
2022-12-01T02:23:00.063Z,99.99
2022-12-01T02:23:59.980Z,99.99
2022-12-01T02:24:59.917Z,99.99
2022-12-01T02:25:59.829Z,99.99
2022-12-01T02:26:59.783Z,99.99
2022-12-01T02:27:59.704Z,99.99
2022-12-01T02:28:59.621Z,99.99
2022-12-01T02:29:59.550Z,99.99
2022-12-01T02:30:59.618Z,99.99
2022-12-01T02:31:59.410Z,99.99
2022-12-01T02:32:59.321Z,99.99
2022-12-01T02:33:59.260Z,99.99
2022-12-01T02:34:59.204Z,99.99
2022-12-01T02:35:59.133Z,99.99
2022-12-01T02:36:59.053Z,99.99
2022-12-01T02:37:58.984Z,99.99
2022-12-01T02:38:58.902Z,99.99
2022-12-01T02:39:58.830Z,99.99
2022-12-01T02:40:58.765Z,99.99
2022-12-01T02:41:58.681Z,99.99
2022-12-01T02:42:58.600Z,99.99
2022-12-01T02:43:58.528Z,99.99
2022-12-01T02:44:58.480Z,99.99
2022-12-01T02:45:58.450Z,99.99
2022-12-01T02:46:58.340Z,99.99
2022-12-01T02:47:58.261Z,99.99
2022-12-01T02:48:58.219Z,99.99
2022-12-01T02:49:58.104Z,99.99
2022-12-01T02:50:58.032Z,99.99
2022-12-01T02:51:57.964Z,99.99
2022-12-01T02:52:57.863Z,99.99
2022-12-01T02:53:57.794Z,99.99
2022-12-01T02:54:57.713Z,99.99
2022-12-01T02:55:57.668Z,99.99
2022-12-01T02:56:57.597Z,99.99
2022-12-01T02:57:57.502Z,99.99
2022-12-01T02:58:57.423Z,99.99
2022-12-01T02:59:57.345Z,99.99
2022-12-01T03:00:57.351Z,99.99
2022-12-01T03:01:57.205Z,99.99
2022-12-01T03:02:57.180Z,99.99
2022-12-01T03:03:57.034Z,99.99
2022-12-01T03:04:56.995Z,99.99
2022-12-01T03:05:56.886Z,99.99
2022-12-01T03:06:56.855Z,99.99
2022-12-01T03:07:56.805Z,99.99
2022-12-01T03:08:56.635Z,99.99
2022-12-01T03:09:56.576Z,99.99
2022-12-01T03:10:56.486Z,99.99
2022-12-01T03:11:56.428Z,99.99
2022-12-01T03:12:56.344Z,99.99
2022-12-01T03:13:56.247Z,99.99
2022-12-01T03:14:56.188Z,99.99
2022-12-01T03:15:56.170Z,99.99
2022-12-01T03:16:56.027Z,99.99
2022-12-01T03:17:55.962Z,99.99
2022-12-01T03:18:55.876Z,99.99
2022-12-01T03:19:55.807Z,99.99
2022-12-01T03:20:55.736Z,99.99
2022-12-01T03:21:55.648Z,99.99
2022-12-01T03:22:55.600Z,99.99
2022-12-01T03:23:55.514Z,99.99
2022-12-01T03:24:55.429Z,99.99
2022-12-01T03:25:55.350Z,99.99
2022-12-01T03:26:55.269Z,99.99
2022-12-01T03:28:13.797Z,99.99
2022-12-01T03:28:56.129Z,99.99
2022-12-01T03:29:55.057Z,99.99
2022-12-01T03:30:54.995Z,99.99
2022-12-01T03:31:54.876Z,99.99
2022-12-01T03:32:54.831Z,99.99
2022-12-01T03:33:54.741Z,99.99
2022-12-01T03:34:54.642Z,99.99
2022-12-01T03:35:54.565Z,99.99
2022-12-01T03:36:54.510Z,99.99
2022-12-01T03:37:54.460Z,99.98
2022-12-01T03:38:54.358Z,99.99
2022-12-01T03:39:59.748Z,99.98
2022-12-01T03:40:55.199Z,99.99
2022-12-01T03:41:54.121Z,99.99
2022-12-01T03:42:54.041Z,99.99
2022-12-01T03:43:53.969Z,99.99
2022-12-01T03:44:53.920Z,99.99
2022-12-01T03:45:53.865Z,99.99
2022-12-01T03:46:53.754Z,99.99
2022-12-01T03:47:53.674Z,99.99
2022-12-01T03:48:53.607Z,99.99
2022-12-01T03:49:53.545Z,99.99
2022-12-01T03:50:53.457Z,99.99
2022-12-01T03:51:53.382Z,99.99
2022-12-01T03:52:53.317Z,99.99
2022-12-01T03:53:53.233Z,99.99
2022-12-01T03:54:53.181Z,99.92
2022-12-01T03:55:53.103Z,99.82
2022-12-01T03:56:53.025Z,99.82
2022-12-01T03:57:52.975Z,99.92
2022-12-01T03:58:52.887Z,99.82
2022-12-01T03:59:52.826Z,99.82
2022-12-01T04:00:52.760Z,99.92
2022-12-01T04:01:52.741Z,99.99
2022-12-01T04:02:52.613Z,99.99
2022-12-01T04:03:52.516Z,99.92
2022-12-01T04:04:52.428Z,99.82
2022-12-01T04:05:52.380Z,99.82
2022-12-01T04:06:52.286Z,99.82
2022-12-01T04:07:52.242Z,99.86
2022-12-01T04:08:52.160Z,99.71
2022-12-01T04:09:52.194Z,99.76
2022-12-01T04:10:52.031Z,99.82
2022-12-01T04:11:51.927Z,99.86
2022-12-01T04:12:51.852Z,99.86
2022-12-01T04:13:51.794Z,99.86
2022-12-01T04:14:51.687Z,99.86
2022-12-01T04:15:51.700Z,99.96
2022-12-01T04:16:51.587Z,99.99
2022-12-01T04:17:51.491Z,99.99
2022-12-01T04:18:51.411Z,99.99
2022-12-01T04:19:51.524Z,99.99
2022-12-01T04:20:51.259Z,99.99
2022-12-01T04:21:51.205Z,99.99
2022-12-01T04:22:51.119Z,99.99
2022-12-01T04:23:51.039Z,99.99
2022-12-01T04:24:50.969Z,99.99
2022-12-01T04:25:50.910Z,99.99
2022-12-01T04:26:50.837Z,99.99
2022-12-01T04:27:50.803Z,99.99
2022-12-01T04:28:50.691Z,99.99
2022-12-01T04:29:50.934Z,99.99
2022-12-01T04:30:50.573Z,99.99
2022-12-01T04:31:50.543Z,99.99
2022-12-01T04:32:50.419Z,99.99
2022-12-01T04:33:50.323Z,99.99
2022-12-01T04:34:50.251Z,99.99
2022-12-01T04:35:50.172Z,99.99
2022-12-01T04:36:50.089Z,99.99
2022-12-01T04:37:50.045Z,99.99
2022-12-01T04:38:49.945Z,99.99
2022-12-01T04:39:50.065Z,99.99
2022-12-01T04:40:49.784Z,99.99
2022-12-01T04:41:49.691Z,99.99
2022-12-01T04:42:49.613Z,99.99
2022-12-01T04:43:49.546Z,99.99
2022-12-01T04:44:49.455Z,99.96
2022-12-01T04:45:49.374Z,99.99
2022-12-01T04:46:49.354Z,99.96
2022-12-01T04:47:49.227Z,99.92
2022-12-01T04:48:49.152Z,99.96
2022-12-01T04:49:49.444Z,99.82
2022-12-01T04:50:48.975Z,99.82
2022-12-01T04:51:48.929Z,99.71
2022-12-01T04:52:48.861Z,99.76
2022-12-01T04:53:48.781Z,99.71
2022-12-01T04:54:48.704Z,99.61
2022-12-01T04:55:48.627Z,99.61
2022-12-01T04:56:48.557Z,99.61
2022-12-01T04:57:48.494Z,99.65
2022-12-01T04:58:48.409Z,99.65
2022-12-01T04:59:48.655Z,99.61
2022-12-01T05:00:48.325Z,99.76
2022-12-01T05:01:48.491Z,99.86
2022-12-01T05:02:48.153Z,99.86
2022-12-01T05:03:48.067Z,99.96
2022-12-01T05:04:48.006Z,99.96
2022-12-01T05:05:47.930Z,99.99
2022-12-01T05:06:47.851Z,99.99
2022-12-01T05:07:47.887Z,99.99
2022-12-01T05:08:47.711Z,99.99
2022-12-01T05:09:48.168Z,99.99
2022-12-01T05:10:47.569Z,99.99
2022-12-01T05:11:47.496Z,99.99
2022-12-01T05:12:47.425Z,99.99
2022-12-01T05:13:47.346Z,99.99
2022-12-01T05:14:47.287Z,99.99
2022-12-01T05:15:47.218Z,99.99
2022-12-01T05:16:47.178Z,99.99
2022-12-01T05:17:47.052Z,99.99
2022-12-01T05:18:47.071Z,99.96
2022-12-01T05:19:47.252Z,99.96
2022-12-01T05:20:46.854Z,99.99
2022-12-01T05:21:46.768Z,99.99
2022-12-01T05:23:04.758Z,99.99
2022-12-01T05:23:47.619Z,99.99
2022-12-01T05:24:46.532Z,99.92
2022-12-01T05:25:46.485Z,99.92
2022-12-01T05:26:46.379Z,99.71
2022-12-01T05:27:46.309Z,99.71
2022-12-01T05:28:46.240Z,99.71
2022-12-01T05:29:46.366Z,99.71
2022-12-01T05:30:46.092Z,99.71
2022-12-01T05:31:46.117Z,99.61
2022-12-01T05:32:45.936Z,99.61
2022-12-01T05:33:45.844Z,99.71
2022-12-01T05:34:45.780Z,99.61
2022-12-01T05:35:45.703Z,99.71
2022-12-01T05:36:45.625Z,99.71
2022-12-01T05:37:45.550Z,99.71
2022-12-01T05:38:45.473Z,99.71
2022-12-01T05:39:45.490Z,99.71
2022-12-01T05:40:45.320Z,99.71
2022-12-01T05:41:45.276Z,99.71
2022-12-01T05:42:45.164Z,99.71
2022-12-01T05:43:45.093Z,99.71
2022-12-01T05:44:45.014Z,99.71
2022-12-01T05:45:44.979Z,99.71
2022-12-01T05:46:44.844Z,99.71
2022-12-01T05:47:44.785Z,99.82
2022-12-01T05:48:45.678Z,99.71
2022-12-01T05:49:44.616Z,99.77
2022-12-01T05:50:44.526Z,99.56
2022-12-01T05:51:44.453Z,99.40
2022-12-01T05:52:44.396Z,99.25
2022-12-01T05:53:44.295Z,99.25
2022-12-01T05:54:44.215Z,99.15
2022-12-01T05:55:44.156Z,99.04
2022-12-01T05:56:44.056Z,99.08
2022-12-01T05:57:43.987Z,98.93
2022-12-01T05:58:43.929Z,99.04
2022-12-01T05:59:43.857Z,98.93
2022-12-01T06:00:46.018Z,99.15
2022-12-01T06:01:43.736Z,99.04
2022-12-01T06:02:43.684Z,99.04
2022-12-01T06:03:43.592Z,98.93
2022-12-01T06:04:43.460Z,98.83
2022-12-01T06:05:43.387Z,98.83
2022-12-01T06:06:43.319Z,98.93
2022-12-01T06:07:43.259Z,98.93
2022-12-01T06:08:43.167Z,98.72
2022-12-01T06:09:43.095Z,98.62
2022-12-01T06:10:42.996Z,98.62
2022-12-01T06:11:42.953Z,98.62
2022-12-01T06:12:42.851Z,98.62
2022-12-01T06:13:42.792Z,98.52
2022-12-01T06:14:42.729Z,98.52
2022-12-01T06:15:42.640Z,98.41
2022-12-01T06:16:42.609Z,98.62
2022-12-01T06:17:42.472Z,98.72
2022-12-01T06:18:42.400Z,98.72
2022-12-01T06:19:42.422Z,98.52
2022-12-01T06:20:42.272Z,98.41
2022-12-01T06:21:42.197Z,98.41
2022-12-01T06:22:42.100Z,98.52
2022-12-01T06:23:42.038Z,98.31
2022-12-01T06:24:41.960Z,98.31
2022-12-01T06:25:41.917Z,98.41
2022-12-01T06:26:41.817Z,98.31
2022-12-01T06:27:41.757Z,98.16
2022-12-01T06:28:41.682Z,98.26
2022-12-01T06:29:47.854Z,98.37
2022-12-01T06:30:42.520Z,98.37
2022-12-01T06:31:41.483Z,98.31
2022-12-01T06:32:41.361Z,98.31
2022-12-01T06:33:41.293Z,98.26
2022-12-01T06:34:41.225Z,98.41
2022-12-01T06:35:41.134Z,98.31
2022-12-01T06:36:41.063Z,98.31
2022-12-01T06:37:40.973Z,98.26
2022-12-01T06:38:40.904Z,98.41
2022-12-01T06:39:40.833Z,98.41
2022-12-01T06:40:40.754Z,98.37
2022-12-01T06:41:40.714Z,98.37
2022-12-01T06:42:40.618Z,98.26
2022-12-01T06:43:40.545Z,98.10
2022-12-01T06:44:40.455Z,97.95
2022-12-01T06:45:40.433Z,97.95
2022-12-01T06:46:40.314Z,97.89
2022-12-01T06:47:40.237Z,97.95
2022-12-01T06:48:40.155Z,97.95
2022-12-01T06:49:40.084Z,97.95
2022-12-01T06:50:39.995Z,97.85
2022-12-01T06:51:39.923Z,97.74
2022-12-01T06:52:39.856Z,97.85
2022-12-01T06:53:39.774Z,97.85
2022-12-01T06:54:39.665Z,97.74
2022-12-01T06:55:39.596Z,97.53
2022-12-01T06:56:39.516Z,97.43
2022-12-01T06:57:39.457Z,97.64
2022-12-01T06:58:39.384Z,97.32
2022-12-01T06:59:39.295Z,97.22
2022-12-01T07:00:39.211Z,97.11
2022-12-01T07:01:39.258Z,97.11
2022-12-01T07:02:39.107Z,97.11
2022-12-01T07:03:38.968Z,97.22
2022-12-01T07:04:38.893Z,97.32
2022-12-01T07:05:38.805Z,97.11
2022-12-01T07:06:38.709Z,97.22
2022-12-01T07:07:38.668Z,97.32
2022-12-01T07:08:38.575Z,97.22
2022-12-01T07:09:38.498Z,97.22
2022-12-01T07:10:38.409Z,97.01
2022-12-01T07:11:38.358Z,96.70
2022-12-01T07:12:38.259Z,96.59
2022-12-01T07:13:38.181Z,96.66
2022-12-01T07:14:38.119Z,96.76
2022-12-01T07:15:38.047Z,96.76
2022-12-01T07:16:37.988Z,96.91
2022-12-01T07:17:37.870Z,96.66
2022-12-01T07:18:37.797Z,96.76
2022-12-01T07:19:37.719Z,96.80
2022-12-01T07:20:37.632Z,97.07
2022-12-01T07:21:37.549Z,96.86
2022-12-01T07:22:37.455Z,96.44
2022-12-01T07:23:37.374Z,96.34
2022-12-01T07:24:37.279Z,96.44
2022-12-01T07:25:37.212Z,96.34
2022-12-01T07:26:37.130Z,96.34
2022-12-01T07:27:37.063Z,96.44
2022-12-01T07:28:36.962Z,96.23
2022-12-01T07:29:36.901Z,96.34
2022-12-01T07:30:36.848Z,96.23
2022-12-01T07:31:36.762Z,96.23
2022-12-01T07:32:36.681Z,95.92
2022-12-01T07:33:36.594Z,96.23
2022-12-01T07:34:36.523Z,95.92
2022-12-01T07:35:36.462Z,96.23
2022-12-01T07:36:36.361Z,96.23
2022-12-01T07:37:36.292Z,95.92
2022-12-01T07:38:36.225Z,95.72
2022-12-01T07:39:36.164Z,95.29
2022-12-01T07:40:36.072Z,95.36
2022-12-01T07:41:35.992Z,95.29
2022-12-01T07:42:35.906Z,95.67
2022-12-01T07:43:35.827Z,95.56
2022-12-01T07:44:35.759Z,95.29
2022-12-01T07:45:35.686Z,95.46
2022-12-01T07:46:35.644Z,95.88
2022-12-01T07:47:35.538Z,95.78
2022-12-01T07:48:35.453Z,95.67
2022-12-01T07:49:35.403Z,95.46
2022-12-01T07:50:35.301Z,95.25
2022-12-01T07:51:35.226Z,95.25
2022-12-01T07:52:35.156Z,95.36
2022-12-01T07:53:35.066Z,95.46
2022-12-01T07:54:34.985Z,95.36
2022-12-01T07:55:34.920Z,95.15
2022-12-01T07:56:34.844Z,95.15
2022-12-01T07:57:34.736Z,95.36
2022-12-01T07:58:34.647Z,95.25
2022-12-01T07:59:34.570Z,95.04
2022-12-01T08:00:34.478Z,95.15
2022-12-01T08:01:34.456Z,95.04
2022-12-01T08:02:34.401Z,95.36
2022-12-01T08:03:34.229Z,95.15
2022-12-01T08:04:34.140Z,94.73
2022-12-01T08:05:34.075Z,94.63
2022-12-01T08:06:33.967Z,94.73
2022-12-01T08:07:33.932Z,94.84
2022-12-01T08:08:33.776Z,94.63
2022-12-01T08:09:33.698Z,94.69
2022-12-01T08:10:33.618Z,94.52
2022-12-01T08:11:33.546Z,94.37
2022-12-01T08:12:33.475Z,94.27
2022-12-01T08:13:33.389Z,94.37
2022-12-01T08:14:33.278Z,93.85
2022-12-01T08:15:33.291Z,94.06
2022-12-01T08:16:33.120Z,93.96
2022-12-01T08:17:33.071Z,93.85
2022-12-01T08:18:32.941Z,93.96
2022-12-01T08:19:32.882Z,93.85
2022-12-01T08:20:32.795Z,94.06
2022-12-01T08:21:32.680Z,93.85
2022-12-01T08:22:32.607Z,93.75
2022-12-01T08:23:32.529Z,93.85
2022-12-01T08:24:32.419Z,93.65
2022-12-01T08:25:32.342Z,93.40
2022-12-01T08:26:32.254Z,93.91
2022-12-01T08:27:32.202Z,94.02
2022-12-01T08:28:32.094Z,93.71
2022-12-01T08:29:31.992Z,93.18
2022-12-01T08:30:31.900Z,92.97
2022-12-01T08:31:31.866Z,93.18
2022-12-01T08:32:31.732Z,93.50
2022-12-01T08:33:31.660Z,92.97
2022-12-01T08:34:31.580Z,92.97
2022-12-01T08:35:31.474Z,92.97
2022-12-01T08:36:31.403Z,93.18
2022-12-01T08:37:31.307Z,93.29
2022-12-01T08:38:31.215Z,93.60
2022-12-01T08:39:31.149Z,93.08
2022-12-01T08:40:31.067Z,93.40
2022-12-01T08:41:30.974Z,93.14
2022-12-01T08:42:30.900Z,93.29
2022-12-01T08:43:56.616Z,93.46
2022-12-01T08:44:31.795Z,93.14
2022-12-01T08:45:30.637Z,92.93
2022-12-01T08:46:30.598Z,93.24
2022-12-01T08:47:30.486Z,93.24
2022-12-01T08:48:30.412Z,93.46
2022-12-01T08:49:30.308Z,93.14
2022-12-01T08:50:30.239Z,92.83
2022-12-01T08:51:30.161Z,93.24
2022-12-01T08:52:30.046Z,92.72
2022-12-01T08:53:29.959Z,92.41
2022-12-01T08:54:29.890Z,92.62
2022-12-01T08:55:29.805Z,92.79
2022-12-01T08:56:29.707Z,92.47
2022-12-01T08:57:29.638Z,92.27
2022-12-01T08:58:29.547Z,92.27
2022-12-01T08:59:29.448Z,92.79
2022-12-01T09:00:29.431Z,92.79
2022-12-01T09:01:29.352Z,92.37
2022-12-01T09:02:29.374Z,92.79
2022-12-01T09:03:29.148Z,92.68
2022-12-01T09:04:29.030Z,92.47
2022-12-01T09:05:28.940Z,92.27
2022-12-01T09:06:28.840Z,92.27
2022-12-01T09:07:28.823Z,92.16
2022-12-01T09:08:28.655Z,91.64
2022-12-01T09:09:28.556Z,92.16
2022-12-01T09:10:28.503Z,91.91
2022-12-01T09:11:28.380Z,91.43
2022-12-01T09:12:28.311Z,92.02
2022-12-01T09:13:28.207Z,92.02
2022-12-01T09:14:28.125Z,92.12
2022-12-01T09:15:28.041Z,91.71
2022-12-01T09:16:28.089Z,91.50
2022-12-01T09:17:27.849Z,91.50
2022-12-01T09:18:27.798Z,91.71
2022-12-01T09:19:27.688Z,92.02
2022-12-01T09:20:27.590Z,92.12
2022-12-01T09:21:27.538Z,91.87
2022-12-01T09:22:27.422Z,91.50
2022-12-01T09:23:27.351Z,90.97
2022-12-01T09:24:27.241Z,91.66
2022-12-01T09:25:27.166Z,91.46
2022-12-01T09:26:27.074Z,91.14
2022-12-01T09:27:26.953Z,91.77
2022-12-01T09:28:26.893Z,91.56
2022-12-01T09:29:26.775Z,91.91
2022-12-01T09:30:26.694Z,91.66
2022-12-01T09:31:26.717Z,92.29
2022-12-01T09:32:26.504Z,91.25
2022-12-01T09:33:26.395Z,91.46
2022-12-01T09:34:26.315Z,91.66
2022-12-01T09:35:26.205Z,92.08
2022-12-01T09:36:26.116Z,92.35
2022-12-01T09:37:26.046Z,90.72
2022-12-01T09:38:25.947Z,90.72
2022-12-01T09:39:25.830Z,90.72
2022-12-01T09:40:25.787Z,91.10
2022-12-01T09:41:25.638Z,91.41
2022-12-01T09:42:28.342Z,91.62
2022-12-01T09:43:26.466Z,91.31
2022-12-01T09:44:25.358Z,90.37
2022-12-01T09:45:25.269Z,90.37
2022-12-01T09:46:25.216Z,90.69
2022-12-01T09:47:25.087Z,91.72
2022-12-01T09:48:25.006Z,91.10
2022-12-01T09:49:24.888Z,90.47
2022-12-01T09:50:24.827Z,90.58
2022-12-01T09:51:24.707Z,90.06
2022-12-01T09:52:24.610Z,90.47
2022-12-01T09:53:24.518Z,90.37
2022-12-01T09:54:24.430Z,90.16
2022-12-01T09:55:24.307Z,91.00
2022-12-01T09:56:24.221Z,90.89
2022-12-01T09:57:24.147Z,90.64
2022-12-01T09:58:24.022Z,90.58
2022-12-01T09:59:23.942Z,90.44
2022-12-01T10:00:23.960Z,90.37
2022-12-01T10:01:27.270Z,90.64
2022-12-01T10:02:23.795Z,90.75
2022-12-01T10:03:23.549Z,90.02
2022-12-01T10:04:23.462Z,90.85
2022-12-01T10:05:23.366Z,90.54
2022-12-01T10:06:28.124Z,90.44
2022-12-01T10:07:24.250Z,89.92
2022-12-01T10:08:26.959Z,89.92
2022-12-01T10:09:22.971Z,90.12
2022-12-01T10:10:22.874Z,90.23
2022-12-01T10:11:22.767Z,90.64
2022-12-01T10:12:22.685Z,90.85
2022-12-01T10:13:22.576Z,90.23
2022-12-01T10:14:22.479Z,90.08
2022-12-01T10:15:22.396Z,90.19
2022-12-01T10:16:22.321Z,89.60
2022-12-01T10:17:22.184Z,90.54
2022-12-01T10:18:22.103Z,90.54
2022-12-01T10:19:22.004Z,90.12
2022-12-01T10:20:21.907Z,90.39
2022-12-01T10:21:21.795Z,90.60
2022-12-01T10:22:21.685Z,90.81
2022-12-01T10:23:21.577Z,89.87
2022-12-01T10:24:21.502Z,89.87
2022-12-01T10:25:21.404Z,89.87
2022-12-01T10:26:21.313Z,89.98
2022-12-01T10:27:21.193Z,90.29
2022-12-01T10:28:21.087Z,89.98
2022-12-01T10:29:20.984Z,89.56
2022-12-01T10:30:20.910Z,89.36
2022-12-01T10:31:20.841Z,89.36
2022-12-01T10:32:20.697Z,89.67
2022-12-01T10:33:20.586Z,89.98
2022-12-01T10:34:20.497Z,90.08
2022-12-01T10:35:20.417Z,90.29
2022-12-01T10:36:20.297Z,89.77
2022-12-01T10:37:20.278Z,89.98
2022-12-01T10:38:20.097Z,89.87
2022-12-01T10:39:20.022Z,90.29
2022-12-01T10:40:19.922Z,90.25
2022-12-01T10:41:19.779Z,89.11
2022-12-01T10:42:19.678Z,89.83
2022-12-01T10:43:19.568Z,89.52
2022-12-01T10:44:19.478Z,89.42
2022-12-01T10:45:19.369Z,89.31
2022-12-01T10:46:19.331Z,89.52
2022-12-01T10:47:19.149Z,89.73
2022-12-01T10:48:19.063Z,90.04
2022-12-01T10:49:18.953Z,90.45
2022-12-01T10:50:18.852Z,89.21
2022-12-01T10:51:18.751Z,89.73
2022-12-01T10:52:18.640Z,89.83
2022-12-01T10:53:18.532Z,89.83
2022-12-01T10:54:18.431Z,89.83
2022-12-01T10:55:18.341Z,89.62
2022-12-01T10:56:18.248Z,89.31
2022-12-01T10:57:18.118Z,89.42
2022-12-01T10:58:18.021Z,89.52
2022-12-01T10:59:17.913Z,89.83
2022-12-01T11:00:43.013Z,89.98
2022-12-01T11:01:18.798Z,90.19
2022-12-01T11:02:17.737Z,89.98
2022-12-01T11:03:21.584Z,90.29
2022-12-01T11:04:17.382Z,91.12
2022-12-01T11:05:17.273Z,90.81
2022-12-01T11:06:17.170Z,90.81
2022-12-01T11:07:17.067Z,90.50
2022-12-01T11:08:16.976Z,91.02
2022-12-01T11:09:20.279Z,91.80
2022-12-01T11:10:17.754Z,91.39
2022-12-01T11:11:16.644Z,90.77
2022-12-01T11:12:16.591Z,90.35
2022-12-01T11:13:16.451Z,90.45
2022-12-01T11:14:16.331Z,90.56
2022-12-01T11:15:16.215Z,90.97
2022-12-01T11:16:16.171Z,91.18
2022-12-01T11:17:16.014Z,90.45
2022-12-01T11:18:15.930Z,90.04
2022-12-01T11:19:16.083Z,90.04
2022-12-01T11:20:15.835Z,90.29
2022-12-01T11:21:15.606Z,90.60
2022-12-01T11:22:15.498Z,90.81
2022-12-01T11:23:15.396Z,91.22
2022-12-01T11:24:15.297Z,91.08
2022-12-01T11:25:15.214Z,90.60
2022-12-01T11:26:15.097Z,90.91
2022-12-01T11:27:14.996Z,91.12
2022-12-01T11:28:14.909Z,90.97
2022-12-01T11:29:14.807Z,90.45
2022-12-01T11:30:14.744Z,90.39
2022-12-01T11:31:14.624Z,90.60
2022-12-01T11:32:14.619Z,90.81
2022-12-01T11:33:14.377Z,90.81
2022-12-01T11:34:14.300Z,90.81
2022-12-01T11:35:14.179Z,91.22
2022-12-01T11:36:16.284Z,91.43
2022-12-01T11:37:13.970Z,91.33
2022-12-01T11:38:29.219Z,91.74
2022-12-01T11:39:14.795Z,91.70
2022-12-01T11:40:13.690Z,91.70
2022-12-01T11:41:13.571Z,91.33
2022-12-01T11:42:13.470Z,90.97
2022-12-01T11:43:13.362Z,91.02
2022-12-01T11:44:43.050Z,91.39
2022-12-01T11:45:14.153Z,91.53
2022-12-01T11:46:13.098Z,91.12
2022-12-01T11:47:22.640Z,91.74
2022-12-01T11:48:13.888Z,91.22
2022-12-01T11:49:12.754Z,91.33
2022-12-01T11:50:12.662Z,91.12
2022-12-01T11:51:12.548Z,91.53
2022-12-01T11:52:12.435Z,91.95
2022-12-01T11:53:12.354Z,91.85
2022-12-01T11:54:12.245Z,91.33
2022-12-01T11:55:12.142Z,91.74
2022-12-01T11:56:12.038Z,91.74
2022-12-01T11:57:33.134Z,91.74
2022-12-01T11:58:12.803Z,92.36
2022-12-01T11:59:11.693Z,91.95
2022-12-01T12:00:11.666Z,92.26
2022-12-01T12:01:11.505Z,92.05
2022-12-01T12:02:11.465Z,92.16
2022-12-01T12:03:11.330Z,92.47
2022-12-01T12:04:11.184Z,92.43
2022-12-01T12:05:11.095Z,91.53
2022-12-01T12:06:38.797Z,91.64
2022-12-01T12:07:11.846Z,92.22
2022-12-01T12:08:10.763Z,91.74
2022-12-01T12:09:10.693Z,91.33
2022-12-01T12:10:10.541Z,91.33
2022-12-01T12:11:10.525Z,91.64
2022-12-01T12:12:10.319Z,91.95
2022-12-01T12:13:10.207Z,91.95
2022-12-01T12:14:10.098Z,92.51
2022-12-01T12:15:10.041Z,92.20
2022-12-01T12:16:09.929Z,92.61
2022-12-01T12:17:09.775Z,92.72
2022-12-01T12:18:09.743Z,92.47
2022-12-01T12:19:09.596Z,92.82
2022-12-01T12:20:09.913Z,92.36
2022-12-01T12:21:09.378Z,92.51
2022-12-01T12:22:09.281Z,92.88
2022-12-01T12:23:09.157Z,92.41
2022-12-01T12:24:09.050Z,92.36
2022-12-01T12:25:08.932Z,92.99
2022-12-01T12:26:08.849Z,92.88
2022-12-01T12:27:08.717Z,92.47
2022-12-01T12:28:08.651Z,92.47
2022-12-01T12:29:13.615Z,92.47
2022-12-01T12:30:09.429Z,92.88
2022-12-01T12:31:08.340Z,92.88
2022-12-01T12:32:08.213Z,92.16
2022-12-01T12:33:08.132Z,92.36
2022-12-01T12:34:08.010Z,92.05
2022-12-01T12:35:07.947Z,92.26
2022-12-01T12:36:07.820Z,92.78
2022-12-01T12:37:07.787Z,92.36
2022-12-01T12:38:07.617Z,92.36
2022-12-01T12:39:09.813Z,92.47
2022-12-01T12:40:08.393Z,92.88
2022-12-01T12:41:07.335Z,92.78
2022-12-01T12:42:07.213Z,92.26
2022-12-01T12:43:07.113Z,92.26
2022-12-01T12:44:07.014Z,92.68
2022-12-01T12:45:06.944Z,92.68
2022-12-01T12:46:06.873Z,92.68
2022-12-01T12:47:06.698Z,91.95
2022-12-01T12:48:06.595Z,91.95
2022-12-01T12:49:20.796Z,91.95
2022-12-01T12:50:07.413Z,92.47
2022-12-01T12:51:06.313Z,92.26